Time;durP1;ratioP1;P1;durP2;ratioP2;P2;SDS_P1;SDS_P2;PMS_P1;PMS_P2;Temp;Humidity;BMP_temperature;BMP_pressure;BME280_temperature;BME280_humidity;BME280_pressure;Samples;Min_cycle;Max_cycle;Signal;HPM_P1;HPM_P2
2021/12/28 00:04:19;;;;;;;15.50;2.50;;;;;;;7.65;100.00;97790.72;4885539;29;20053;-83
2021/12/28 00:06:59;;;;;;;9.88;2.55;;;;;;;7.67;100.00;97787.88;4884569;29;20036;-82
2021/12/28 00:09:52;;;;;;;;;;;;;;;;;;;;;
2021/12/28 00:12:36;;;;;;;13.50;2.55;;;;;;;7.69;100.00;97756.59;4885072;29;20574;-85
2021/12/28 00:15:31;;;;;;;10.23;2.33;;;;;;;7.70;100.00;97760.94;4884435;29;20631;-84
2021/12/28 00:18:11;;;;;;;9.77;2.55;;;;;;;7.72;100.00;97748.28;4886351;29;20657;-84
2021/12/28 00:21:24;;;;;;;10.98;2.33;;;;;;;7.71;100.00;97749.28;4869620;29;20045;-83
2021/12/28 00:24:14;;;;;;;14.52;2.88;;;;;;;7.77;100.00;97754.72;4869576;29;20064;-82
2021/12/28 00:29:48;;;;;;;10.50;2.47;;;;;;;7.80;100.00;97746.41;4884123;29;20056;-82
2021/12/28 00:32:28;;;;;;;14.10;3.03;;;;;;;7.79;100.00;97736.75;4883177;29;20033;-82
2021/12/28 00:35:27;;;;;;;14.02;3.05;;;;;;;7.82;100.00;97743.56;4890521;29;20059;-82
2021/12/28 00:38:35;;;;;;;13.00;2.83;;;;;;;7.81;100.00;97740.06;4876109;29;20039;-84
2021/12/28 00:41:27;;;;;;;16.42;3.05;;;;;;;7.83;100.00;97739.91;4881386;29;20386;-82
2021/12/28 00:44:24;;;;;;;13.13;2.58;;;;;;;7.83;100.00;97739.91;4876662;29;20047;-85
2021/12/28 00:47:27;;;;;;;13.30;2.95;;;;;;;7.83;100.00;97737.25;4868599;29;20041;-84
2021/12/28 00:50:11;;;;;;;13.98;2.90;;;;;;;7.82;100.00;97732.91;4897629;29;20847;-83
2021/12/28 00:52:51;;;;;;;13.20;2.65;;;;;;;7.86;100.00;97729.72;4873832;29;20109;-82
2021/12/28 00:55:44;;;;;;;15.23;2.97;;;;;;;7.87;100.00;97727.91;4875159;29;20036;-83
2021/12/28 00:58:40;;;;;;;14.52;2.70;;;;;;;7.88;100.00;97737.53;4875328;29;20510;-83
2021/12/28 01:01:56;;;;;;;15.80;3.20;;;;;;;7.88;100.00;97738.38;4883524;29;20033;-84
2021/12/28 01:04:41;;;;;;;14.30;3.00;;;;;;;7.89;100.00;97728.56;4888693;29;20036;-82
2021/12/28 01:07:39;;;;;;;16.23;3.13;;;;;;;7.90;100.00;97728.38;4882220;29;20435;-84
2021/12/28 01:10:14;;;;;;;16.55;2.78;;;;;;;7.89;100.00;97729.38;4874575;29;20048;-83
2021/12/28 01:12:49;;;;;;;14.35;2.85;;;;;;;7.89;100.00;97731.22;4873949;29;20040;-83
2021/12/28 01:15:39;;;;;;;16.42;3.13;;;;;;;7.89;100.00;97729.38;4874553;29;20088;-82
2021/12/28 01:18:27;;;;;;;13.68;2.70;;;;;;;7.90;100.00;97724.88;4873757;29;20757;-84
2021/12/28 01:21:19;;;;;;;18.15;3.47;;;;;;;7.94;100.00;97728.03;4888711;29;20037;-84
2021/12/28 01:23:58;;;;;;;16.33;2.60;;;;;;;7.94;100.00;97728.84;4872028;29;20114;-82
2021/12/28 01:26:36;;;;;;;15.63;2.75;;;;;;;7.95;100.00;97727.00;4901024;29;20043;-83
2021/12/28 01:29:25;;;;;;;13.98;2.60;;;;;;;7.94;100.00;97728.84;4882937;29;20067;-82
2021/12/28 01:31:56;;;;;;;;;;;;;;;7.95;100.00;97725.19;4884453;29;20148;-82
2021/12/28 01:34:33;;;;;;;12.13;2.20;;;;;;;7.94;100.00;97726.19;4884061;29;19907;-83
2021/12/28 01:37:12;;;;;;;14.63;2.27;;;;;;;7.95;100.00;97713.72;4883491;29;20046;-85
2021/12/28 01:39:47;;;;;;;11.32;2.70;;;;;;;7.92;100.00;97717.56;4882808;29;20086;-84
2021/12/28 01:42:21;;;;;;;14.27;2.63;;;;;;;7.95;100.00;97722.53;4884748;29;20060;-83
2021/12/28 01:45:02;;;;;;;16.42;2.47;;;;;;;7.97;100.00;97720.50;4881906;29;20040;-84
2021/12/28 01:47:33;;;;;;;11.63;2.70;;;;;;;7.97;100.00;97720.50;4882628;29;20027;-83
2021/12/28 01:50:11;;;;;;;10.02;2.13;;;;;;;7.98;100.00;97727.50;4898079;29;20024;-83
2021/12/28 01:52:45;;;;;;;10.63;2.10;;;;;;;7.97;100.00;97722.34;4882953;29;20036;-84
2021/12/28 01:55:19;;;;;;;8.18;2.33;;;;;;;7.93;100.00;97718.38;4882934;29;20048;-83
2021/12/28 01:57:53;;;;;;;12.50;2.17;;;;;;;7.94;100.00;97709.38;4883015;29;20965;-84
2021/12/28 02:00:36;;;;;;;16.88;2.60;;;;;;;7.95;100.00;97709.22;4881048;29;20133;-83
2021/12/28 02:03:16;;;;;;;11.00;2.33;;;;;;;7.93;100.00;97705.06;4899170;29;20028;-83
2021/12/28 02:05:55;;;;;;;14.75;2.60;;;;;;;7.97;100.00;97698.41;4898770;29;20119;-82
2021/12/28 02:08:35;;;;;;;15.55;2.58;;;;;;;7.96;100.00;97697.56;4881847;29;20024;-83
2021/12/28 02:11:11;;;;;;;10.85;2.42;;;;;;;7.95;100.00;97700.41;4884728;29;20073;-83
2021/12/28 02:13:50;;;;;;;12.57;2.78;;;;;;;7.93;100.00;97697.09;4882808;29;20605;-83
2021/12/28 02:16:32;;;;;;;12.17;2.50;;;;;;;7.97;100.00;97696.56;4898453;29;20027;-84
2021/12/28 02:19:20;;;;;;;;;;;;;;;;;;;;;
2021/12/28 02:22:09;;;;;;;9.98;2.17;;;;;;;7.94;100.00;97686.28;4896085;29;20108;-84
2021/12/28 02:24:42;;;;;;;12.57;2.80;;;;;;;8.04;100.00;97689.56;4882221;29;20099;-83
2021/12/28 02:27:29;;;;;;;13.20;2.88;;;;;;;8.00;100.00;97679.41;4884662;29;20076;-83
2021/12/28 02:30:08;;;;;;;11.85;2.42;;;;;;;7.97;100.00;97680.59;4863883;29;20044;-83
2021/12/28 02:32:59;;;;;;;8.43;2.08;;;;;;;7.97;100.00;97677.09;4863423;29;20049;-83
2021/12/28 02:35:43;;;;;;;;;;;;;;;;;;;;;
2021/12/28 02:38:26;;;;;;;9.75;2.20;;;;;;;8.01;100.00;97679.22;4886958;29;20239;-84
2021/12/28 02:41:01;;;;;;;8.75;2.15;;;;;;;8.03;100.00;97669.22;4871542;29;20055;-83
2021/12/28 02:43:38;;;;;;;5.95;1.92;;;;;;;8.02;100.00;97672.91;4879038;29;20467;-85
2021/12/28 02:46:22;;;;;;;5.00;1.50;;;;;;;7.99;100.00;97673.25;4871324;29;20052;-84
2021/12/28 02:49:08;;;;;;;7.85;1.50;;;;;;;7.97;100.00;97666.47;4865043;29;20032;-83
2021/12/28 02:51:53;;;;;;;7.05;1.48;;;;;;;7.99;100.00;97667.94;4879735;29;20021;-84
2021/12/28 02:54:31;;;;;;;7.90;2.00;;;;;;;8.02;100.00;97667.56;4871247;29;20610;-84
2021/12/28 02:57:12;;;;;;;8.30;1.48;;;;;;;7.98;100.00;97666.28;4862975;29;20114;-83
2021/12/28 03:00:04;;;;;;;5.80;1.45;;;;;;;7.98;100.00;97657.47;4879379;29;20060;-83
2021/12/28 03:02:45;;;;;;;7.40;1.40;;;;;;;8.00;100.00;97650.97;4863848;29;20028;-83
2021/12/28 03:05:44;;;;;;;7.38;1.70;;;;;;;8.00;100.00;97642.16;4862702;29;21010;-83
2021/12/28 03:08:21;;;;;;;3.72;1.15;;;;;;;7.99;100.00;97637.84;4880857;29;20032;-82
2021/12/28 03:11:02;;;;;;;;;;;;;;;;;;;;;
2021/12/28 03:13:43;;;;;;;5.40;1.20;;;;;;;8.00;100.00;97636.81;4892398;29;20034;-82
2021/12/28 03:16:19;;;;;;;7.00;1.67;;;;;;;8.06;100.00;97639.63;4879758;29;20447;-84
2021/12/28 03:19:14;;;;;;;4.88;1.05;;;;;;;8.05;100.00;97624.66;4863160;29;20063;-83
2021/12/28 03:21:55;;;;;;;6.07;1.17;;;;;;;8.08;100.00;97618.16;4863405;29;20039;-83
2021/12/28 03:24:31;;;;;;;3.78;1.08;;;;;;;8.11;100.00;97623.94;4863482;29;20069;-82
2021/12/28 03:27:03;;;;;;;3.95;1.13;;;;;;;8.11;100.00;97626.59;4867591;29;20359;-83
2021/12/28 03:29:39;;;;;;;5.03;1.00;;;;;;;8.10;100.00;97629.44;4871506;29;20096;-84
2021/12/28 03:32:16;;;;;;;4.15;1.10;;;;;;;8.06;100.00;97625.50;4887521;29;20029;-84
2021/12/28 03:35:03;;;;;;;;;;;;;;;;;;;;;
2021/12/28 03:37:36;;;;;;;1.48;0.98;;;;;;;8.11;100.00;97623.13;4888727;29;20119;-85
2021/12/28 03:40:38;;;;;;;3.92;1.55;;;;;;;8.10;100.00;97614.31;4872411;29;20032;-84
2021/12/28 03:43:20;;;;;;;3.13;1.10;;;;;;;8.08;100.00;97611.00;4882653;29;20060;-83
2021/12/28 03:46:12;;;;;;;4.35;1.08;;;;;;;8.08;100.00;97607.50;4872252;29;20048;-82
2021/12/28 03:49:03;;;;;;;3.13;1.00;;;;;;;8.10;100.00;97610.81;4872860;29;20060;-84
2021/12/28 03:51:39;;;;;;;3.78;1.00;;;;;;;8.10;100.00;97605.50;4872103;29;20040;-84
2021/12/28 03:54:19;;;;;;;3.63;1.00;;;;;;;8.08;100.00;97610.16;4872869;29;20032;-83
2021/12/28 03:56:56;;;;;;;4.50;1.00;;;;;;;8.10;100.00;97602.84;4873154;29;20020;-84
2021/12/28 03:59:34;;;;;;;3.60;0.90;;;;;;;8.10;100.00;97598.34;4886014;29;20033;-84
2021/12/28 04:02:09;;;;;;;1.90;0.80;;;;;;;8.11;100.00;97588.50;4871045;29;20040;-83
2021/12/28 04:04:51;;;;;;;2.35;0.68;;;;;;;8.13;100.00;97590.00;4870972;29;20036;-83
2021/12/28 04:07:30;;;;;;;3.28;0.90;;;;;;;8.13;100.00;97586.50;4883119;29;20024;-83
2021/12/28 04:10:12;;;;;;;2.08;0.85;;;;;;;8.12;100.00;97591.00;4871764;29;20040;-83
2021/12/28 04:12:50;;;;;;;1.90;0.75;;;;;;;8.12;100.00;97582.19;4883650;29;20047;-82
2021/12/28 04:15:23;;;;;;;3.05;0.90;;;;;;;8.12;100.00;97576.84;4891174;29;20028;-83
2021/12/28 04:18:07;;;;;;;2.50;0.88;;;;;;;8.14;100.00;97575.66;4875965;29;20025;-82
2021/12/28 04:20:41;;;;;;;3.88;1.00;;;;;;;8.14;100.00;97577.50;4875292;29;20040;-83
2021/12/28 04:23:24;;;;;;;2.13;0.60;;;;;;;8.13;100.00;97570.53;4890149;29;20044;-83
2021/12/28 04:26:03;;;;;;;2.53;0.70;;;;;;;8.12;100.00;97584.84;4873372;29;20040;-83
2021/12/28 04:28:36;;;;;;;3.55;0.75;;;;;;;8.15;100.00;97579.97;4885000;29;20048;-82
2021/12/28 04:31:20;;;;;;;1.70;0.63;;;;;;;8.14;100.00;97580.16;4883038;29;20028;-82
2021/12/28 04:33:58;;;;;;;2.33;0.52;;;;;;;8.12;100.00;97574.19;4883655;29;20032;-84
2021/12/28 04:36:33;;;;;;;1.08;0.50;;;;;;;8.12;100.00;97568.88;4882238;29;20040;-82
2021/12/28 04:39:09;;;;;;;0.98;0.47;;;;;;;8.11;100.00;97567.22;4883377;29;21098;-85
2021/12/28 04:41:56;;;;;;;1.02;0.43;;;;;;;8.10;100.00;97562.91;4883908;29;20188;-82
2021/12/28 04:44:29;;;;;;;0.52;0.30;;;;;;;8.14;100.00;97574.84;4884859;29;20063;-84
2021/12/28 04:47:08;;;;;;;1.92;0.50;;;;;;;8.14;100.00;97565.03;4884051;29;20100;-85
2021/12/28 04:49:41;;;;;;;1.08;0.30;;;;;;;8.11;100.00;97570.72;4884113;29;20044;-83
2021/12/28 04:52:29;;;;;;;1.40;0.50;;;;;;;8.12;100.00;97575.03;4882865;29;20371;-84
2021/12/28 04:55:14;;;;;;;0.47;0.20;;;;;;;8.10;100.00;97554.91;4883867;29;20131;-83
2021/12/28 04:58:07;;;;;;;1.17;0.30;;;;;;;8.11;100.00;97557.41;4891578;29;20035;-83
2021/12/28 05:00:40;;;;;;;0.60;0.30;;;;;;;8.10;100.00;97555.75;4897885;29;21235;-83
2021/12/28 05:03:15;;;;;;;0.40;0.30;;;;;;;8.09;100.00;97554.09;4885603;29;20185;-83
2021/12/28 05:05:55;;;;;;;1.77;0.25;;;;;;;8.11;100.00;97560.06;4883738;29;20039;-83
2021/12/28 05:08:30;;;;;;;0.35;0.25;;;;;;;8.11;100.00;97562.72;4884773;29;20036;-84
2021/12/28 05:11:06;;;;;;;0.68;0.38;;;;;;;8.12;100.00;97560.88;4899333;29;20036;-82
2021/12/28 05:14:12;;;;;;;;;;;;;;;;;;;;;
2021/12/28 05:17:04;;;;;;;;;;;;;;;;;;;;;
2021/12/28 05:19:55;;;;;;;0.50;0.22;;;;;;;8.09;99.87;97564.75;4889098;29;20097;-83
2021/12/28 05:22:30;;;;;;;0.25;0.25;;;;;;;8.11;100.00;97564.56;4899040;29;20079;-83
2021/12/28 05:25:13;;;;;;;0.95;0.22;;;;;;;8.10;100.00;97561.06;4891530;29;20043;-84
2021/12/28 05:27:53;;;;;;;0.63;0.30;;;;;;;8.09;100.00;97558.59;4876093;29;20044;-84
2021/12/28 05:30:27;;;;;;;0.77;0.30;;;;;;;8.10;100.00;97562.91;4889574;29;20051;-83
2021/12/28 05:33:21;;;;;;;0.52;0.30;;;;;;;8.10;100.00;97550.44;4873792;29;20569;-83
2021/12/28 05:36:05;;;;;;;0.20;0.10;;;;;;;8.13;100.00;97551.91;4881513;29;20119;-83
2021/12/28 05:38:40;;;;;;;0.50;0.40;;;;;;;8.12;100.00;97552.91;4873797;29;20024;-83
2021/12/28 05:41:17;;;;;;;0.90;0.20;;;;;;;8.11;100.00;97544.09;4873821;29;20047;-83
2021/12/28 05:44:17;;;;;;;0.60;0.30;;;;;;;8.09;100.00;97540.78;4872939;29;20029;-83
2021/12/28 05:47:20;;;;;;;0.30;0.20;;;;;;;8.10;100.00;97544.28;4873595;29;20112;-84
2021/12/28 05:50:01;;;;;;;0.63;0.40;;;;;;;8.09;99.90;97546.09;4874752;29;20096;-84
2021/12/28 05:52:40;;;;;;;0.73;0.30;;;;;;;8.11;100.00;97535.28;4881245;29;20032;-83
2021/12/28 05:55:26;;;;;;;1.13;0.40;;;;;;;8.10;100.00;97533.63;4874946;29;20072;-84
2021/12/28 05:58:20;;;;;;;0.32;0.30;;;;;;;8.10;100.00;97539.78;4872412;29;20026;-83
2021/12/28 06:03:40;;;;;;;0.82;0.20;;;;;;;8.11;100.00;97537.94;4879663;23;20077;-85
2021/12/28 06:06:19;;;;;;;0.43;0.30;;;;;;;8.10;100.00;97537.13;4836251;29;20030;-85
2021/12/28 06:09:26;;;;;;;1.00;0.40;;;;;;;8.10;100.00;97542.44;4835499;29;20048;-83
2021/12/28 06:12:00;;;;;;;1.55;0.50;;;;;;;8.10;100.00;97545.09;4850041;29;20425;-85
2021/12/28 06:14:37;;;;;;;0.40;0.30;;;;;;;8.11;100.00;97551.25;4834782;29;20037;-84
2021/12/28 06:17:11;;;;;;;0.20;0.20;;;;;;;8.13;100.00;97559.88;4845169;29;20025;-83
2021/12/28 06:19:53;;;;;;;0.63;0.25;;;;;;;8.14;100.00;97561.53;4849847;29;20046;-83
2021/12/28 06:22:26;;;;;;;0.35;0.30;;;;;;;8.14;100.00;97562.38;4834521;29;20033;-85
2021/12/28 06:25:02;;;;;;;0.60;0.30;;;;;;;8.16;100.00;97564.84;4835652;29;20493;-83
2021/12/28 06:27:41;;;;;;;1.10;0.40;;;;;;;8.17;100.00;97566.50;4850866;29;20037;-82
2021/12/28 06:30:21;;;;;;;0.40;0.40;;;;;;;8.16;100.00;97563.00;4831390;29;20102;-82
2021/12/28 06:33:00;;;;;;;1.17;0.43;;;;;;;8.19;100.00;97549.31;4833700;29;20041;-84
2021/12/28 06:35:44;;;;;;;0.70;0.50;;;;;;;8.18;99.93;97554.84;4848814;29;20143;-83
2021/12/28 06:38:24;;;;;;;0.45;0.45;;;;;;;8.16;100.00;97546.22;4834346;29;20029;-82
2021/12/28 06:41:03;;;;;;;1.33;0.65;;;;;;;8.13;100.00;97542.06;4828017;29;20033;-84
2021/12/28 06:43:43;;;;;;;0.68;0.50;;;;;;;8.11;100.00;97535.28;4828673;29;20086;-83
2021/12/28 06:46:34;;;;;;;;;;;;;;;;;;;;;
2021/12/28 06:49:07;;;;;;;0.40;0.40;;;;;;;8.07;99.99;97523.34;4849520;29;20128;-83
2021/12/28 06:54:17;;;;;;;1.30;1.15;;;;;;;8.06;100.00;97533.16;4969497;24;20676;-82
2021/12/28 06:56:58;;;;;;;0.80;0.70;;;;;;;8.08;100.00;97547.13;4878249;29;20061;-84
2021/12/28 06:59:34;;;;;;;1.35;0.63;;;;;;;8.08;99.78;97540.97;4894765;29;20119;-83
2021/12/28 07:02:20;;;;;;;0.60;0.50;;;;;;;8.07;100.00;97547.31;4878774;29;20123;-82
2021/12/28 07:05:00;;;;;;;0.63;0.50;;;;;;;8.08;99.98;97556.94;4879314;29;20057;-83
2021/12/28 07:07:41;;;;;;;0.40;0.40;;;;;;;8.07;100.00;97550.78;4877393;29;20085;-82
2021/12/28 07:10:14;;;;;;;0.40;0.40;;;;;;;8.07;100.00;97555.28;4894044;29;20097;-84
2021/12/28 07:12:51;;;;;;;0.30;0.30;;;;;;;8.06;99.90;97540.31;4871873;29;20040;-84
2021/12/28 07:15:30;;;;;;;0.30;0.30;;;;;;;8.06;99.99;97550.97;4886407;29;20427;-82
2021/12/28 07:18:04;;;;;;;0.47;0.40;;;;;;;8.06;100.00;97556.28;4893388;29;20041;-85
2021/12/28 07:20:50;;;;;;;1.60;0.45;;;;;;;8.08;100.00;97555.09;4874326;29;20029;-85
2021/12/28 07:23:30;;;;;;;0.57;0.50;;;;;;;8.08;100.00;97557.75;4883949;29;20024;-84
2021/12/28 07:26:06;;;;;;;0.85;0.40;;;;;;;8.08;100.00;97575.56;4896941;29;20028;-82
2021/12/28 07:28:44;;;;;;;0.28;0.28;;;;;;;8.09;100.00;97580.72;4881362;29;20063;-81
2021/12/28 07:31:17;;;;;;;0.50;0.30;;;;;;;8.10;99.81;97582.38;4884183;29;20048;-84
2021/12/28 07:33:51;;;;;;;0.40;0.40;;;;;;;8.12;99.88;97580.34;4881716;29;20035;-83
2021/12/28 07:36:27;;;;;;;0.73;0.43;;;;;;;8.15;99.20;97573.84;4897637;29;20060;-82
2021/12/28 07:39:16;;;;;;;0.40;0.40;;;;;;;8.15;100.00;97571.16;4924375;23;20067;-84
2021/12/28 07:42:06;;;;;;;;;;;;;;;;;;;;;
2021/12/28 07:44:49;;;;;;;1.60;0.55;;;;;;;8.18;99.88;97560.16;4933683;29;20146;-84
2021/12/28 07:47:30;;;;;;;0.63;0.43;;;;;;;8.19;100.00;97564.47;4930333;29;20024;-84
2021/12/28 07:50:38;;;;;;;0.70;0.30;;;;;;;8.18;100.00;97568.97;4911678;29;20050;-84
2021/12/28 07:53:14;;;;;;;0.30;0.30;;;;;;;8.18;99.71;97576.97;4913348;29;20030;-86
2021/12/28 07:55:57;;;;;;;0.35;0.35;;;;;;;8.20;99.81;97576.78;4920592;29;20032;-85
2021/12/28 07:58:42;;;;;;;0.43;0.28;;;;;;;8.21;99.68;97581.09;4941984;29;20032;-84
2021/12/28 08:01:19;;;;;;;0.40;0.40;;;;;;;8.22;99.56;97580.09;4924405;29;20028;-84
2021/12/28 08:04:02;;;;;;;0.38;0.38;;;;;;;8.27;99.09;97587.53;4913672;29;20584;-84
2021/12/28 08:06:57;;;;;;;0.65;0.30;;;;;;;8.25;99.78;97587.69;4921224;29;20381;-83
2021/12/28 08:09:38;;;;;;;0.30;0.30;;;;;;;8.27;99.73;97585.69;4913066;29;20095;-85
2021/12/28 08:12:18;;;;;;;0.95;0.30;;;;;;;8.25;99.76;97573.56;4907644;29;20043;-83
2021/12/28 08:15:04;;;;;;;0.52;0.40;;;;;;;8.25;99.93;97579.72;4908453;29;20554;-85
2021/12/28 08:17:37;;;;;;;1.30;0.40;;;;;;;8.27;99.73;97577.69;4901784;29;20020;-83
2021/12/28 08:20:15;;;;;;;0.32;0.32;;;;;;;8.29;99.77;97589.00;4908807;29;20060;-85
2021/12/28 08:23:01;;;;;;;0.30;0.30;;;;;;;8.27;99.84;97583.03;4922524;29;20028;-86
2021/12/28 08:25:38;;;;;;;0.90;0.40;;;;;;;8.31;99.93;97591.47;4990802;23;20053;-84
2021/12/28 08:28:19;;;;;;;0.43;0.35;;;;;;;8.34;99.77;97583.16;4903704;29;20041;-84
2021/12/28 08:31:10;;;;;;;0.57;0.30;;;;;;;8.36;100.00;97586.47;4880881;29;20048;-84
2021/12/28 08:33:43;;;;;;;1.15;0.30;;;;;;;8.35;100.00;97585.63;4885102;29;20025;-82
2021/12/28 08:36:18;;;;;;;1.23;0.30;;;;;;;8.39;100.00;97584.25;4896755;29;20032;-86
2021/12/28 08:39:00;;;;;;;0.93;0.50;;;;;;;8.41;100.00;97574.25;4920899;29;20370;-84
2021/12/28 08:41:34;;;;;;;0.77;0.30;;;;;;;8.41;100.00;97568.09;4882947;29;20569;-84
2021/12/28 08:44:09;;;;;;;0.47;0.40;;;;;;;8.41;99.98;97568.91;4890816;29;20103;-83
2021/12/28 08:46:45;;;;;;;0.20;0.20;;;;;;;8.42;99.79;97575.91;4882887;29;20047;-83
2021/12/28 08:49:18;;;;;;;0.40;0.30;;;;;;;8.40;100.00;97569.09;4882214;29;20032;-84
2021/12/28 08:51:53;;;;;;;1.02;0.35;;;;;;;8.40;100.00;97567.25;4890639;29;20044;-83
2021/12/28 08:54:27;;;;;;;0.25;0.25;;;;;;;8.42;100.00;97578.56;4890586;29;20457;-84
2021/12/28 08:57:09;;;;;;;0.93;0.30;;;;;;;8.40;100.00;97571.75;4890240;29;20501;-85
2021/12/28 08:59:43;;;;;;;0.40;0.40;;;;;;;8.40;100.00;97564.59;4897593;29;20028;-86
2021/12/28 09:02:19;;;;;;;1.05;0.30;;;;;;;8.42;100.00;97567.09;4905713;29;20378;-86
2021/12/28 09:05:00;;;;;;;0.30;0.30;;;;;;;8.45;99.95;97564.88;4890532;29;20037;-84
2021/12/28 09:07:33;;;;;;;0.30;0.30;;;;;;;8.50;100.00;97581.13;4891008;29;20028;-84
2021/12/28 09:10:15;;;;;;;0.30;0.30;;;;;;;8.50;100.00;97577.63;4880456;29;20037;-85
2021/12/28 09:12:49;;;;;;;0.30;0.25;;;;;;;8.48;99.90;97585.81;4888337;29;20052;-84
2021/12/28 09:15:22;;;;;;;0.50;0.40;;;;;;;8.48;100.00;97572.50;4881624;29;20168;-84
2021/12/28 09:18:04;;;;;;;0.50;0.30;;;;;;;8.51;100.00;97581.97;4890099;29;20037;-84
2021/12/28 09:20:52;;;;;;;0.50;0.40;;;;;;;8.49;100.00;97563.50;4889066;29;20063;-86
2021/12/28 09:23:23;;;;;;;0.30;0.20;;;;;;;8.51;100.00;97571.31;4904433;29;20037;-82
2021/12/28 09:25:54;;;;;;;0.50;0.28;;;;;;;8.54;100.00;97570.13;4856187;29;20029;-82
2021/12/28 09:28:42;;;;;;;0.32;0.32;;;;;;;8.55;100.00;97574.47;4856427;29;20048;-83
2021/12/28 09:31:19;;;;;;;1.33;0.40;;;;;;;8.55;100.00;97577.13;4856460;29;20051;-83
2021/12/28 09:33:53;;;;;;;0.30;0.30;;;;;;;8.54;100.00;97578.13;4856069;29;20032;-82
2021/12/28 09:36:34;;;;;;;3.00;0.40;;;;;;;8.53;100.00;97585.28;4870677;29;20036;-82
2021/12/28 09:39:04;;;;;;;0.30;0.30;;;;;;;8.55;100.00;97571.78;4871156;29;20033;-82
2021/12/28 09:41:36;;;;;;;0.50;0.38;;;;;;;8.58;100.00;97571.41;4855728;29;20033;-83
2021/12/28 09:44:07;;;;;;;0.32;0.28;;;;;;;8.56;100.00;97565.44;4863881;29;20132;-83
2021/12/28 09:46:40;;;;;;;0.75;0.30;;;;;;;8.57;100.00;97570.59;4870270;29;20053;-82
2021/12/28 09:49:13;;;;;;;0.30;0.30;;;;;;;8.59;100.00;97560.59;4870742;29;20036;-83
2021/12/28 09:51:47;;;;;;;0.30;0.30;;;;;;;8.63;100.00;97556.53;4885400;29;20053;-83
2021/12/28 09:54:18;;;;;;;0.35;0.25;;;;;;;8.66;100.00;97558.00;4868220;29;20522;-82
2021/12/28 09:56:55;;;;;;;0.52;0.40;;;;;;;8.67;100.00;97557.81;4855125;29;20021;-83
2021/12/28 09:59:36;;;;;;;0.93;0.32;;;;;;;8.68;100.00;97551.47;4886462;29;20037;-82
2021/12/28 10:02:14;;;;;;;0.30;0.30;;;;;;;8.70;100.00;97549.44;4886247;29;20025;-82
2021/12/28 10:05:07;;;;;;;0.30;0.30;;;;;;;8.73;100.00;97551.75;4869063;29;20049;-83
2021/12/28 10:07:46;;;;;;;0.63;0.28;;;;;;;8.74;100.00;97544.56;4877617;29;20029;-84
2021/12/28 10:10:30;;;;;;;;;;;;;;;8.76;100.00;97542.56;4870490;29;20680;-81
2021/12/28 10:13:16;;;;;;;0.40;0.35;;;;;;;8.81;100.00;97535.66;4859320;29;20958;-83
2021/12/28 10:15:53;;;;;;;0.30;0.30;;;;;;;8.82;100.00;97536.47;4880778;29;20029;-83
2021/12/28 10:18:33;;;;;;;0.40;0.30;;;;;;;8.85;100.00;97533.44;4870134;29;20040;-83
2021/12/28 10:21:05;;;;;;;1.05;0.30;;;;;;;8.81;100.00;97529.50;4885230;29;20037;-82
2021/12/28 10:23:47;;;;;;;0.35;0.30;;;;;;;8.88;100.00;97518.91;4857015;29;20053;-82
2021/12/28 10:27:24;;;;;;;0.30;0.17;;;;;;;8.82;100.00;97513.31;4898207;29;20519;-84
2021/12/28 10:29:54;;;;;;;0.20;0.20;;;;;;;8.82;100.00;97502.66;4900203;29;20040;-83
2021/12/28 10:33:02;;;;;;;;;;;;;;;;;;;;;
2021/12/28 10:36:10;;;;;;;0.60;0.20;;;;;;;8.83;100.00;97488.31;4892377;29;20100;-83
2021/12/28 10:38:52;;;;;;;0.35;0.30;;;;;;;8.91;100.00;97476.72;4902288;29;20052;-83
2021/12/28 10:42:04;;;;;;;;;;;;;;;;;;;;;
2021/12/28 10:45:12;;;;;;;0.90;0.40;;;;;;;9.00;100.00;97472.94;4901969;29;20131;-82
2021/12/28 10:47:47;;;;;;;1.40;0.30;;;;;;;9.01;100.00;97468.44;4903664;29;20024;-83
2021/12/28 10:50:25;;;;;;;0.80;0.30;;;;;;;9.07;100.00;97473.00;4886203;29;20371;-83
2021/12/28 10:53:25;;;;;;;0.40;0.40;;;;;;;9.02;100.00;97465.59;4917100;29;20043;-83
2021/12/28 10:56:21;;;;;;;0.50;0.40;;;;;;;9.05;100.00;97456.38;4887016;29;20646;-82
2021/12/28 10:59:13;;;;;;;;;;;;;;;;;;;;;
2021/12/28 11:02:08;;;;;;;0.63;0.40;;;;;;;9.10;100.00;97473.44;4900079;29;20109;-82
2021/12/28 11:04:55;;;;;;;0.43;0.28;;;;;;;9.07;100.00;97459.69;4915238;29;20116;-82
2021/12/28 11:07:30;;;;;;;1.13;0.50;;;;;;;9.07;100.00;97468.50;4902061;29;20032;-83
2021/12/28 11:10:09;;;;;;;0.30;0.30;;;;;;;9.08;100.00;97466.66;4901406;29;20032;-83
2021/12/28 11:12:59;;;;;;;0.40;0.40;;;;;;;9.07;100.00;97465.84;4886946;29;20991;-84
2021/12/28 11:15:39;;;;;;;1.33;0.50;;;;;;;9.07;100.00;97457.84;4892632;29;20135;-82
2021/12/28 11:18:41;;;;;;;;;;;;;;;;;;;;;
2021/12/28 11:21:41;;;;;;;0.40;0.30;;;;;;;9.12;100.00;97446.59;4899200;29;20119;-84
2021/12/28 11:25:11;;;;;;;0.57;0.30;;;;;;;9.11;100.00;97428.97;4886789;29;20052;-82
2021/12/28 11:27:51;;;;;;;0.40;0.30;;;;;;;9.09;100.00;97423.81;4887409;29;20126;-84
2021/12/28 11:30:33;;;;;;;0.47;0.30;;;;;;;9.06;100.00;97424.19;4886431;29;20045;-83
2021/12/28 11:33:15;;;;;;;0.25;0.20;;;;;;;9.11;100.00;97432.44;4887384;29;20119;-81
2021/12/28 11:36:07;;;;;;;;;;;;;;;;;;;;;
2021/12/28 11:39:25;;;;;;;;;;;;;;;;;;;;;
2021/12/28 11:42:27;;;;;;;0.20;0.20;;;;;;;9.14;100.00;97412.56;4901731;29;20108;-83
2021/12/28 11:45:25;;;;;;;0.30;0.30;;;;;;;9.18;100.00;97418.34;4884863;29;20036;-84
2021/12/28 11:48:10;;;;;;;0.68;0.30;;;;;;;9.22;100.00;97427.63;4903335;29;20028;-83
2021/12/28 11:51:02;;;;;;;;;;;;;;;;;;;;;
2021/12/28 11:54:00;;;;;;;;;;;;;;;;;;;;;
2021/12/28 11:56:59;;;;;;;;;;;;;;;;;;;;;
2021/12/28 12:00:13;;;;;;;14.82;1.90;;;;;;;8.97;100.00;97437.81;4912990;29;20108;-82
2021/12/28 12:03:22;;;;;;;;;;;;;;;;;;;;;
2021/12/28 12:06:21;;;;;;;13.52;2.03;;;;;;;8.91;100.00;97433.25;4893731;29;20132;-84
2021/12/28 12:09:27;;;;;;;8.65;1.80;;;;;;;8.89;99.45;97444.09;4871648;29;20028;-85
2021/12/28 12:12:24;;;;;;;7.95;2.22;;;;;;;8.87;98.78;97448.78;4902193;29;20123;-83
2021/12/28 12:15:21;;;;;;;12.70;1.98;;;;;;;8.91;98.26;97451.91;4864074;29;20028;-84
2021/12/28 12:18:14;;;;;;;15.98;2.75;;;;;;;8.90;97.63;97452.91;4893686;29;20123;-83
2021/12/28 12:21:30;;;;;;;13.00;2.42;;;;;;;8.91;97.57;97457.22;4887560;29;20028;-84
2021/12/28 12:35:41;;;;;;;13.65;2.50;;;;;;;8.86;94.79;97441.00;4827931;29;20054;-82
2021/12/28 12:38:50;;;;;;;;;;;;;;;;;;;;;
2021/12/28 12:48:51;;;;;;;14.15;2.47;;;;;;;8.90;92.92;97456.41;4751295;30;20043;-85
2021/12/28 12:55:49;;;;;;;14.75;2.85;;;;;;;8.94;92.19;97451.53;4771798;29;21138;-85
2021/12/28 12:58:16;;;;;;;14.30;2.58;;;;;;;9.03;91.41;97434.41;4815883;29;20120;-83
2021/12/28 13:22:17;;;;;;;10.63;1.55;;;;;;;8.92;86.09;97459.72;4786155;29;20096;-84
2021/12/28 13:43:38;;;;;;;10.43;1.55;;;;;;;8.87;85.78;97446.13;4725747;30;21066;-85
2021/12/28 14:08:30;;;;;;;14.55;2.35;;;;;;;8.70;87.80;97471.38;4724379;30;20150;-85
2021/12/28 14:32:48;;;;;;;;;;;;;;;;;;;;;
2021/12/28 15:28:29;;;;;;;12.48;2.47;;;;;;;8.61;92.29;97451.19;4884755;29;20101;-76
2021/12/28 15:30:54;;;;;;;18.60;3.35;;;;;;;8.60;92.09;97460.19;4858872;29;20061;-74
2021/12/28 17:24:55;;;;;;;9.43;5.28;;;;;;;8.42;98.78;97501.34;5028271;23;20077;-80
2021/12/28 17:27:21;;;;;;;7.03;1.65;;;;;;;8.37;98.79;97498.41;4888224;29;20146;-80
2021/12/28 17:29:47;;;;;;;7.15;1.40;;;;;;;8.39;99.38;97484.91;4890903;29;20040;-81
2021/12/28 17:32:13;;;;;;;11.55;1.80;;;;;;;8.38;98.93;97505.38;4906852;29;20044;-81
2021/12/28 17:34:38;;;;;;;8.63;2.10;;;;;;;8.37;99.34;97495.75;4889561;29;20028;-81
2021/12/28 17:37:54;;;;;;;;;;;;;;;;;;;;;
2021/12/28 17:41:19;;;;;;;7.35;1.67;;;;;;;8.45;99.27;97514.28;4908670;29;20126;-86
2021/12/28 17:44:41;;;;;;;5.32;1.48;;;;;;;8.45;99.20;97514.28;4906903;29;20118;-85
2021/12/28 17:51:04;;;;;;;4.10;0.95;;;;;;;8.48;99.42;97513.91;4864250;29;20100;-83
2021/12/28 17:54:10;;;;;;;;;;;;;;;;;;;;;
2021/12/28 18:00:13;;;;;;;2.90;0.98;;;;;;;8.50;99.26;97532.38;4829197;29;20049;-84
2021/12/28 18:03:35;;;;;;;;;;;;;;;;;;;;;
2021/12/28 18:10:20;;;;;;;5.05;1.45;;;;;;;8.51;99.57;97556.19;4839508;29;20055;-84
2021/12/28 18:13:42;;;;;;;4.32;1.35;;;;;;;8.53;99.95;97571.97;4819792;29;20058;-83
2021/12/28 18:20:56;;;;;;;5.63;1.50;;;;;;;8.52;99.93;97578.31;4814266;29;20045;-83
2021/12/28 18:24:27;;;;;;;;;;;;;;;;;;;;;
2021/12/28 18:27:31;;;;;;;9.30;1.50;;;;;;;8.51;100.00;97609.44;4847440;29;20141;-84